Gulf Coral — C6XQ7 — position and weather

sailwx.info

Track history (hours):
 
Tides and Currents Weather Stations Pressure Air Temp Water Temp Dewpoint Dewpoint Depression Visibility Wind Speed Wind Dir Waves Ship Positions

Gulf Coral

Last reported at 2018-Jan-04 19:31 UTC. Time now 2018-Jan-18 00:19 UTC.
Position N 01°15' E 104°05'.
Warning: this ship's position is 13 days out of date.

Length 228 m; draft 13.6 m.

Type: Ship. MMSI: 311019400.

Date/timePositionNaut miles runAvg speedWind from/ knotsBaromVisibWave heightAir tempDewpointWater temp
2018-Jan-04 19:31N 01°15' E 104°05'012.6
2018-Jan-04 19:30N 01°15' E 104°05'612.2
2018-Jan-04 18:59N 01°14' E 103°58'611.8
2018-Jan-04 18:30N 01°12' E 103°53'5 9.7
2018-Jan-04 18:00N 01°10' E 103°49'510.7
2018-Jan-04 17:30N 01°07' E 103°45'510.4
2018-Jan-04 17:00N 01°03' E 103°41'5 9.9
2018-Jan-04 16:30N 01°04' E 103°36'611.4
2018-Jan-04 16:00N 01°08' E 103°32'5 9.5
2018-Jan-04 15:30N 01°13' E 103°32'4 7.8
2018-Jan-04 15:01N 01°17' E 103°33'4 8.2
2018-Jan-04 14:30N 01°21' E 103°33'0 0.7
2018-Jan-04 14:00N 01°21' E 103°32'0 0.0
2018-Jan-03 23:39N 01°21' E 103°32'0 0.0
2018-Jan-03 23:26N 01°21' E 103°32'0 0.0
2018-Jan-03 22:59N 01°21' E 103°32'0 0.0
2018-Jan-03 21:43N 01°21' E 103°32'0 0.0
2018-Jan-03 21:25N 01°21' E 103°32'0 0.0
2018-Jan-03 20:58N 01°21' E 103°32'0 0.0
2018-Jan-03 20:14N 01°21' E 103°32'0 0.0
2018-Jan-03 19:57N 01°21' E 103°32'0 0.0
2018-Jan-03 19:27N 01°21' E 103°32'0 0.0
2018-Jan-03 18:57N 01°21' E 103°32'0 0.0
2018-Jan-03 18:30N 01°21' E 103°32'0 0.0
2018-Jan-03 17:57N 01°21' E 103°32'0 0.0
2018-Jan-03 17:28N 01°21' E 103°32'0 0.0
2018-Jan-03 15:03N 01°21' E 103°32'0 0.0
2018-Jan-03 14:56N 01°21' E 103°32'0 0.0
2018-Jan-03 14:29N 01°21' E 103°32'0 0.0
2018-Jan-03 13:59N 01°21' E 103°32'0 0.0
2018-Jan-03 13:27N 01°21' E 103°32'0 0.0
2018-Jan-03 12:56N 01°21' E 103°32'0 0.0
2018-Jan-03 12:30N 01°21' E 103°32'0 0.0
2018-Jan-03 11:53N 01°21' E 103°32'0 0.0
2018-Jan-03 11:30N 01°21' E 103°32'0 0.0
2018-Jan-03 10:57N 01°21' E 103°32'0 0.0
2018-Jan-03 10:26N 01°21' E 103°32'0 0.0
2018-Jan-03 09:51N 01°21' E 103°32'0 0.0
2018-Jan-03 09:11N 01°21' E 103°32'0 0.0
2018-Jan-03 08:56N 01°21' E 103°32'0 0.0
2018-Jan-03 08:20N 01°21' E 103°32'0 0.0
2018-Jan-03 07:35N 01°21' E 103°32'0 0.0
2018-Jan-03 07:24N 01°21' E 103°32'0 0.0
2018-Jan-03 06:58N 01°21' E 103°32'0 0.0
2018-Jan-03 06:28N 01°21' E 103°32'0 0.0
2018-Jan-03 05:50N 01°21' E 103°32'0 0.0
2018-Jan-03 05:29N 01°21' E 103°32'0 0.0
2018-Jan-03 04:58N 01°21' E 103°32'0 0.0
2018-Jan-03 04:21N 01°21' E 103°32'0 0.0
2018-Jan-03 03:58N 01°21' E 103°32'0 0.3
2018-Jan-03 03:30N 01°21' E 103°33'1 2.7
2018-Jan-03 02:58N 01°20' E 103°33'4 8.6
2018-Jan-03 02:30N 01°16' E 103°33'3 7.0
2018-Jan-03 02:00N 01°13' E 103°33'4 7.2
2018-Jan-03 01:30N 01°12' E 103°36'4 8.5
2018-Jan-03 01:00N 01°11' E 103°40'5 9.2
2018-Jan-03 00:30N 01°08' E 103°44'5 9.5
2018-Jan-03 00:00N 01°11' E 103°48'510.0
2018-Jan-02 23:29N 01°13' E 103°53'5 9.9
2018-Jan-02 22:58N 01°15' E 103°58'4 9.3
2018-Jan-02 22:29N 01°16' E 104°02'5 8.0
2018-Jan-02 21:53N 01°17' E 104°07'3 6.5
2018-Jan-02 21:30N 01°19' E 104°09'1 0.0
2018-Jan-01 05:41N 01°19' E 104°09'1 5.9
2018-Jan-01 05:28N 01°18' E 104°08'0 0.1
2018-Jan-01 02:25N 01°18' E 104°08'0 0.1
2018-Jan-01 01:17N 01°18' E 104°08'2 2.4
2018-Jan-01 00:22N 01°17' E 104°06'6 1.8
2017-Dec-31 20:58N 01°17' E 104°00'0 0.0
2017-Dec-31 17:34N 01°17' E 104°00'0 0.2
2017-Dec-31 17:10N 01°17' E 104°00'0 0.0
2017-Dec-31 15:37N 01°17' E 104°00'0 0.0
2017-Dec-31 15:28N 01°17' E 104°00'0 0.0
2017-Dec-31 13:16N 01°17' E 104°00'0 0.0
2017-Dec-31 12:46N 01°17' E 104°00'0 0.0
2017-Dec-31 11:49N 01°17' E 104°00'0 0.2
2017-Dec-31 11:28N 01°17' E 104°00'0 0.0
2017-Dec-31 10:31N 01°17' E 104°00'0 0.0
2017-Dec-31 10:25N 01°17' E 104°00'0 0.1
2017-Dec-31 09:37N 01°17' E 104°00'0 0.0
2017-Dec-31 09:25N 01°17' E 104°00'0 0.2
2017-Dec-31 08:59N 01°17' E 104°00'1 3.0
2017-Dec-31 08:30N 01°16' E 104°01'2 4.5
2017-Dec-31 07:59N 01°16' E 104°03'6 8.3
2017-Dec-31 07:16N 01°17' E 104°09'  
Track history (hours):
 
Tides and Currents Weather Stations Pressure Air Temp Water Temp Dewpoint Dewpoint Depression Visibility Wind Speed Wind Dir Waves Ship Positions

Gulf Coral

Last reported at 2018-Jan-04 19:31 UTC. Time now 2018-Jan-18 00:19 UTC.
Position N 01°15' E 104°05'.
Warning: this ship's position is 13 days out of date.

Length 228 m; draft 13.6 m.

Type: Ship. MMSI: 311019400.

Date/timePositionNaut miles runAvg speedWind from/ knotsBaromVisibWave heightAir tempDewpointWater temp
2018-Jan-04 19:31N 01°15' E 104°05'012.6
2018-Jan-04 19:30N 01°15' E 104°05'612.2
2018-Jan-04 18:59N 01°14' E 103°58'611.8
2018-Jan-04 18:30N 01°12' E 103°53'5 9.7
2018-Jan-04 18:00N 01°10' E 103°49'510.7
2018-Jan-04 17:30N 01°07' E 103°45'510.4
2018-Jan-04 17:00N 01°03' E 103°41'5 9.9
2018-Jan-04 16:30N 01°04' E 103°36'611.4
2018-Jan-04 16:00N 01°08' E 103°32'5 9.5
2018-Jan-04 15:30N 01°13' E 103°32'4 7.8
2018-Jan-04 15:01N 01°17' E 103°33'4 8.2
2018-Jan-04 14:30N 01°21' E 103°33'0 0.7
2018-Jan-04 14:00N 01°21' E 103°32'0 0.0
2018-Jan-03 23:39N 01°21' E 103°32'0 0.0
2018-Jan-03 23:26N 01°21' E 103°32'0 0.0
2018-Jan-03 22:59N 01°21' E 103°32'0 0.0
2018-Jan-03 21:43N 01°21' E 103°32'0 0.0
2018-Jan-03 21:25N 01°21' E 103°32'0 0.0
2018-Jan-03 20:58N 01°21' E 103°32'0 0.0
2018-Jan-03 20:14N 01°21' E 103°32'0 0.0
2018-Jan-03 19:57N 01°21' E 103°32'0 0.0
2018-Jan-03 19:27N 01°21' E 103°32'0 0.0
2018-Jan-03 18:57N 01°21' E 103°32'0 0.0
2018-Jan-03 18:30N 01°21' E 103°32'0 0.0
2018-Jan-03 17:57N 01°21' E 103°32'0 0.0
2018-Jan-03 17:28N 01°21' E 103°32'0 0.0
2018-Jan-03 15:03N 01°21' E 103°32'0 0.0
2018-Jan-03 14:56N 01°21' E 103°32'0 0.0
2018-Jan-03 14:29N 01°21' E 103°32'0 0.0
2018-Jan-03 13:59N 01°21' E 103°32'0 0.0
2018-Jan-03 13:27N 01°21' E 103°32'0 0.0
2018-Jan-03 12:56N 01°21' E 103°32'0 0.0
2018-Jan-03 12:30N 01°21' E 103°32'0 0.0
2018-Jan-03 11:53N 01°21' E 103°32'0 0.0
2018-Jan-03 11:30N 01°21' E 103°32'0 0.0
2018-Jan-03 10:57N 01°21' E 103°32'0 0.0
2018-Jan-03 10:26N 01°21' E 103°32'0 0.0
2018-Jan-03 09:51N 01°21' E 103°32'0 0.0
2018-Jan-03 09:11N 01°21' E 103°32'0 0.0
2018-Jan-03 08:56N 01°21' E 103°32'0 0.0
2018-Jan-03 08:20N 01°21' E 103°32'0 0.0
2018-Jan-03 07:35N 01°21' E 103°32'0 0.0
2018-Jan-03 07:24N 01°21' E 103°32'0 0.0
2018-Jan-03 06:58N 01°21' E 103°32'0 0.0
2018-Jan-03 06:28N 01°21' E 103°32'0 0.0
2018-Jan-03 05:50N 01°21' E 103°32'0 0.0
2018-Jan-03 05:29N 01°21' E 103°32'0 0.0
2018-Jan-03 04:58N 01°21' E 103°32'0 0.0
2018-Jan-03 04:21N 01°21' E 103°32'0 0.0
2018-Jan-03 03:58N 01°21' E 103°32'0 0.3
2018-Jan-03 03:30N 01°21' E 103°33'1 2.7
2018-Jan-03 02:58N 01°20' E 103°33'4 8.6
2018-Jan-03 02:30N 01°16' E 103°33'3 7.0
2018-Jan-03 02:00N 01°13' E 103°33'4 7.2
2018-Jan-03 01:30N 01°12' E 103°36'4 8.5
2018-Jan-03 01:00N 01°11' E 103°40'5 9.2
2018-Jan-03 00:30N 01°08' E 103°44'5 9.5
2018-Jan-03 00:00N 01°11' E 103°48'510.0
2018-Jan-02 23:29N 01°13' E 103°53'5 9.9
2018-Jan-02 22:58N 01°15' E 103°58'4 9.3
2018-Jan-02 22:29N 01°16' E 104°02'5 8.0
2018-Jan-02 21:53N 01°17' E 104°07'3 6.5
2018-Jan-02 21:30N 01°19' E 104°09'1 0.0
2018-Jan-01 05:41N 01°19' E 104°09'1 5.9
2018-Jan-01 05:28N 01°18' E 104°08'0 0.1
2018-Jan-01 02:25N 01°18' E 104°08'0 0.1
2018-Jan-01 01:17N 01°18' E 104°08'2 2.4
2018-Jan-01 00:22N 01°17' E 104°06'6 1.8
2017-Dec-31 20:58N 01°17' E 104°00'0 0.0
2017-Dec-31 17:34N 01°17' E 104°00'0 0.2
2017-Dec-31 17:10N 01°17' E 104°00'0 0.0
2017-Dec-31 15:37N 01°17' E 104°00'0 0.0
2017-Dec-31 15:28N 01°17' E 104°00'0 0.0
2017-Dec-31 13:16N 01°17' E 104°00'0 0.0
2017-Dec-31 12:46N 01°17' E 104°00'0 0.0
2017-Dec-31 11:49N 01°17' E 104°00'0 0.2
2017-Dec-31 11:28N 01°17' E 104°00'0 0.0
2017-Dec-31 10:31N 01°17' E 104°00'0 0.0
2017-Dec-31 10:25N 01°17' E 104°00'0 0.1
2017-Dec-31 09:37N 01°17' E 104°00'0 0.0
2017-Dec-31 09:25N 01°17' E 104°00'0 0.2
2017-Dec-31 08:59N 01°17' E 104°00'1 3.0
2017-Dec-31 08:30N 01°16' E 104°01'2 4.5
2017-Dec-31 07:59N 01°16' E 104°03'6 8.3
2017-Dec-31 07:16N 01°17' E 104°09'  

Dump ship's entire track history